Time;durP1;ratioP1;P1;durP2;ratioP2;P2;SDS_P1;SDS_P2;PMS_P1;PMS_P2;Temp;Humidity;BMP_temperature;BMP_pressure;BME280_temperature;BME280_humidity;BME280_pressure;Samples;Min_cycle;Max_cycle;Signal;HPM_P1;HPM_P2
2022/08/11 08:17:57;;;;;;;7.85;6.72;;;31.50;45.00;;;39.41;25.14;102388.47;5070164;28;20236;-64
2022/08/11 08:20:48;;;;;;;5.95;3.05;;;32.40;42.70;;;40.39;23.93;102385.41;5068557;28;20681;-64
2022/08/11 08:23:31;;;;;;;3.97;2.60;;;33.40;39.90;;;41.16;22.99;102391.09;5069492;28;20213;-64
2022/08/11 08:26:03;;;;;;;6.68;2.80;;;34.20;39.00;;;42.02;22.62;102383.72;5065247;27;20201;-64
2022/08/11 08:28:33;;;;;;;4.70;3.00;;;35.00;37.70;;;42.72;21.75;102387.88;5059957;28;20251;-64
2022/08/11 08:31:02;;;;;;;4.80;4.40;;;35.70;35.50;;;43.29;20.51;102391.09;5057983;28;20193;-64
2022/08/11 08:33:31;;;;;;;6.45;5.90;;;36.30;34.10;;;44.00;19.83;102387.28;5054053;28;20220;-63
2022/08/11 08:36:13;;;;;;;4.40;3.67;;;36.90;32.30;;;44.67;19.62;102386.78;5052636;28;20531;-64
2022/08/11 08:38:45;;;;;;;4.38;3.50;;;37.40;31.60;;;45.23;18.25;102383.53;5049132;28;20174;-64
2022/08/11 08:41:21;;;;;;;4.82;3.28;;;38.00;30.00;;;45.56;17.90;102375.34;5049542;28;20194;-64
2022/08/11 08:43:54;;;;;;;4.07;3.08;;;38.40;28.50;;;45.93;16.59;102376.31;5052037;28;20245;-63
2022/08/11 08:46:35;;;;;;;2.55;2.35;;;38.90;27.20;;;46.25;16.43;102380.41;5062003;28;20259;-66
2022/08/11 08:49:04;;;;;;;5.80;5.07;;;39.20;26.00;;;46.66;15.80;102372.16;5062520;28;20211;-65
2022/08/11 08:51:37;;;;;;;3.00;2.63;;;39.50;26.50;;;47.21;16.34;102371.19;5068485;28;20554;-65
2022/08/11 08:54:35;;;;;;;3.45;3.22;;;39.80;26.80;;;47.88;16.17;102379.31;5066440;28;20275;-65
2022/08/11 08:57:06;;;;;;;3.00;2.70;;;40.20;26.40;;;48.36;14.85;102371.56;5065592;28;20204;-66
2022/08/11 08:59:40;;;;;;;4.60;4.00;;;40.50;26.00;;;48.78;14.31;102366.94;5048945;28;20199;-67
2022/08/11 09:02:22;;;;;;;3.42;3.03;;;41.00;24.90;;;49.00;14.08;102367.75;5065252;28;20796;-64
2022/08/11 09:05:03;;;;;;;2.60;2.42;;;41.40;24.30;;;49.15;13.21;102360.97;5068640;28;20598;-66
2022/08/11 09:07:32;;;;;;;3.45;2.85;;;41.60;23.00;;;49.21;12.09;102359.41;5064500;28;20221;-65
2022/08/11 09:10:09;;;;;;;2.75;2.00;;;41.90;21.30;;;49.31;12.91;102358.59;5043541;28;20224;-65
2022/08/11 09:12:41;;;;;;;2.13;2.00;;;42.00;22.20;;;49.42;11.42;102358.59;5075104;28;20518;-65
2022/08/11 09:15:11;;;;;;;3.75;2.08;;;42.10;20.10;;;49.40;11.87;102355.41;5058887;28;20204;-65
2022/08/11 09:17:44;;;;;;;2.30;2.10;;;42.20;20.10;;;49.28;11.82;102350.22;5059175;28;20185;-65
2022/08/11 09:20:18;;;;;;;2.00;1.80;;;42.40;20.20;;;49.11;12.44;102360.19;5050807;28;20623;-65
2022/08/11 09:28:48;;;;;;;1.98;1.85;;;42.50;19.40;;;49.03;11.28;102357.75;5047013;28;20207;-66
2022/08/11 09:31:16;;;;;;;2.15;2.05;;;42.50;19.00;;;49.07;11.21;102352.97;5057543;28;20214;-65
2022/08/11 09:33:54;;;;;;;1.85;1.75;;;42.50;18.90;;;49.14;10.92;102341.78;5036574;28;20285;-66
2022/08/11 09:42:02;;;;;;;2.40;2.20;;;42.70;19.00;;;49.32;11.30;102345.41;5047487;28;20217;-66
2022/08/11 09:44:48;;;;;;;3.85;2.38;;;42.80;18.70;;;49.30;11.15;102345.00;5035265;28;20194;-69
2022/08/11 09:47:23;;;;;;;2.45;2.25;;;42.80;18.40;;;49.36;10.81;102332.16;5047200;28;20241;-66
2022/08/11 09:49:58;;;;;;;3.08;2.33;;;42.70;17.50;;;49.41;10.85;102328.97;5033525;28;20209;-70
2022/08/11 09:52:31;;;;;;;1.80;1.70;;;42.80;17.90;;;49.55;10.39;102320.56;5034246;28;20280;-69
2022/08/11 09:55:01;;;;;;;3.28;2.33;;;42.80;17.90;;;49.78;10.88;102320.91;5038980;28;20222;-69
2022/08/11 10:00:16;;;;;;;2.53;2.33;;;42.80;19.00;;;50.63;10.23;102312.13;5047351;28;20197;-70
2022/08/11 10:02:48;;;;;;;2.28;2.08;;;42.90;19.20;;;51.09;10.37;102308.97;5046765;28;20761;-72
2022/08/11 10:08:11;;;;;;;2.65;2.40;;;43.30;18.60;;;51.61;9.75;102312.50;5053954;28;20201;-70
2022/08/11 10:10:40;;;;;;;2.92;2.13;;;43.50;18.20;;;51.86;9.37;102296.13;5051156;28;20202;-70
2022/08/11 10:13:15;;;;;;;2.40;2.20;;;43.70;18.30;;;52.18;9.58;102296.53;5063899;28;20237;-69
2022/08/11 10:16:09;;;;;;;2.63;2.42;;;43.90;18.80;;;52.48;9.89;102293.69;5060651;28;20193;-69
2022/08/11 10:18:50;;;;;;;2.13;2.03;;;44.10;18.40;;;52.75;9.36;102298.50;5056555;28;20204;-69
2022/08/11 10:21:28;;;;;;;2.40;2.20;;;44.40;18.30;;;52.92;9.56;102294.63;5049352;28;20197;-68
2022/08/11 10:27:05;;;;;;;3.03;2.72;;;44.70;17.20;;;52.94;9.27;102289.34;5053499;28;20682;-69
2022/08/11 10:35:28;;;;;;;2.20;2.10;;;44.90;16.80;;;53.33;8.91;102275.34;5034247;28;20198;-69
2022/08/11 10:38:01;;;;;;;2.15;1.95;;;45.00;17.60;;;53.32;8.41;102279.41;5054638;28;20307;-69
2022/08/11 10:40:39;;;;;;;3.58;2.78;;;44.90;16.50;;;53.08;8.56;102275.00;5073020;28;20192;-62
2022/08/11 10:43:12;;;;;;;2.75;2.50;;;44.90;16.90;;;52.58;8.60;102275.06;5069606;28;20265;-61
2022/08/11 10:48:37;;;;;;;3.42;2.42;;;44.60;16.90;;;51.42;10.25;102272.50;5054987;28;20291;-62
2022/08/11 10:51:12;;;;;;;3.40;3.10;;;44.40;17.80;;;50.42;10.49;102261.75;5053065;28;20190;-62
2022/08/11 10:59:25;;;;;;;2.58;2.28;;;42.90;17.40;;;45.60;12.58;102250.91;5053468;28;20240;-61
2022/08/11 11:01:54;;;;;;;2.00;1.90;;;42.10;17.20;;;44.25;12.79;102260.81;5051656;28;20217;-61
2022/08/11 11:04:32;;;;;;;2.58;2.22;;;41.30;17.60;;;43.28;13.99;102253.47;5052872;28;20215;-62
2022/08/11 11:07:13;;;;;;;2.38;2.20;;;40.60;18.50;;;42.71;14.13;102258.72;5053312;28;20217;-61
2022/08/11 11:09:49;;;;;;;3.47;2.83;;;39.90;19.30;;;42.43;15.23;102254.00;5033717;28;20281;-61
2022/08/11 11:18:08;;;;;;;3.88;2.35;;;38.60;19.80;;;41.22;14.88;102247.06;5053571;28;20182;-62
2022/08/11 11:20:40;;;;;;;2.05;1.67;;;38.20;20.40;;;40.91;15.62;102245.66;5052759;28;20193;-63
2022/08/11 11:23:22;;;;;;;2.35;2.25;;;37.90;20.80;;;41.29;15.77;102230.72;5060000;28;20205;-62
2022/08/11 11:26:34;;;;;;;3.65;2.20;;;37.60;21.30;;;41.98;15.02;102231.31;5073055;28;20262;-62
2022/08/11 11:29:28;;;;;;;3.22;2.50;;;37.60;21.70;;;41.79;14.91;102231.13;5073609;28;20247;-60
2022/08/11 11:32:18;;;;;;;2.60;2.40;;;37.60;21.30;;;41.16;15.62;102227.94;5072874;28;20209;-61
2022/08/11 11:35:16;;;;;;;2.30;2.10;;;37.60;21.40;;;40.43;15.86;102228.91;5072880;28;20285;-63
2022/08/11 11:37:49;;;;;;;2.35;1.75;;;37.50;21.40;;;40.05;16.00;102226.34;5073851;28;20181;-62
2022/08/11 11:40:32;;;;;;;2.13;2.03;;;37.30;21.60;;;39.59;16.61;102230.06;5073241;28;20192;-61
2022/08/11 11:43:02;;;;;;;1.90;1.80;;;37.00;21.60;;;39.23;17.25;102232.50;5060309;28;20256;-62
2022/08/11 11:45:31;;;;;;;4.10;2.30;;;36.70;22.60;;;38.89;17.48;102230.69;5056813;28;20224;-62
2022/08/11 11:48:02;;;;;;;3.85;2.20;;;36.40;22.10;;;38.54;17.40;102227.16;5068830;28;20570;-62
2022/08/11 11:50:34;;;;;;;4.20;2.60;;;36.20;22.20;;;38.19;18.38;102231.06;5052384;28;20208;-63
2022/08/11 11:53:07;;;;;;;3.75;2.47;;;35.90;22.90;;;37.86;18.46;102232.69;5053122;28;20225;-63
2022/08/11 11:55:35;;;;;;;5.88;5.30;;;35.70;22.80;;;37.62;18.36;102224.03;5052642;28;20267;-63
2022/08/11 12:03:44;;;;;;;2.10;1.90;;;35.10;23.20;;;37.13;18.92;102222.41;5052903;28;20200;-62
2022/08/11 12:06:13;;;;;;;2.28;2.17;;;34.90;23.30;;;37.09;18.47;102215.91;5052727;28;20178;-62
2022/08/11 12:08:42;;;;;;;2.55;2.20;;;34.70;23.20;;;37.05;18.27;102212.19;5051973;28;20283;-64
2022/08/11 12:14:03;;;;;;;4.30;2.28;;;34.60;23.60;;;36.93;19.61;102221.03;5052402;28;20503;-63
2022/08/11 12:16:40;;;;;;;4.28;3.92;;;34.60;24.00;;;36.91;18.86;102211.44;5052565;28;20182;-62
2022/08/11 12:19:11;;;;;;;3.10;2.80;;;34.50;24.00;;;36.88;19.27;102201.91;5051991;28;20194;-61
2022/08/11 12:27:19;;;;;;;2.65;2.45;;;34.50;24.20;;;37.36;18.97;102195.63;5072281;28;20581;-62
2022/08/11 12:29:58;;;;;;;3.55;2.03;;;34.50;24.30;;;37.44;19.47;102203.13;5072341;28;20262;-62
2022/08/11 12:32:29;;;;;;;4.03;2.10;;;34.50;24.40;;;37.55;18.99;102198.94;5052991;28;20279;-64
2022/08/11 12:34:57;;;;;;;5.57;2.40;;;34.50;24.80;;;37.50;18.78;102185.34;5052601;28;20205;-61
2022/08/11 12:37:31;;;;;;;2.40;2.20;;;34.50;24.70;;;37.39;18.71;102195.03;5052427;28;20231;-62
2022/08/11 12:46:13;;;;;;;4.18;3.53;;;34.60;24.40;;;37.14;19.24;102183.63;5049577;28;20627;-61
2022/08/11 12:54:56;;;;;;;4.32;2.20;;;34.70;24.90;;;38.26;18.63;102176.31;5055439;28;20642;-64
2022/08/11 13:06:03;;;;;;;4.75;2.03;;;35.00;23.80;;;37.75;18.36;102159.84;5070150;28;20207;-62
2022/08/11 13:08:36;;;;;;;3.78;2.40;;;35.00;23.80;;;37.55;18.94;102165.94;5090743;28;20213;-63
2022/08/11 13:14:12;;;;;;;2.05;1.95;;;34.90;23.80;;;37.17;19.52;102144.50;5069965;28;20189;-62
2022/08/11 13:19:33;;;;;;;2.92;2.42;;;34.70;24.50;;;37.06;20.25;102148.66;5054808;28;20189;-62
2022/08/11 13:22:04;;;;;;;2.30;2.10;;;34.60;24.80;;;37.09;20.18;102142.53;5054805;28;20218;-63
2022/08/11 13:24:35;;;;;;;2.55;2.13;;;34.60;25.10;;;37.16;19.92;102139.31;5070860;28;20708;-62
2022/08/11 13:27:03;;;;;;;2.72;2.15;;;34.50;25.00;;;37.16;19.27;102139.31;5054642;28;20205;-62
2022/08/11 13:29:31;;;;;;;2.30;2.10;;;34.50;24.90;;;37.18;20.09;102137.88;5054313;28;20213;-62
2022/08/11 13:31:59;;;;;;;2.58;2.38;;;34.60;25.10;;;37.30;20.24;102137.25;5054480;28;20263;-62
2022/08/11 13:34:33;;;;;;;2.63;2.42;;;34.60;25.30;;;37.38;19.84;102130.19;5049676;28;20224;-62
2022/08/11 13:37:04;;;;;;;3.25;2.20;;;34.60;25.30;;;37.71;19.16;102132.16;5054561;28;20203;-61
2022/08/11 13:39:34;;;;;;;4.28;3.88;;;34.60;25.10;;;38.03;18.82;102136.38;5053554;28;20604;-62
2022/08/11 13:42:04;;;;;;;2.42;2.20;;;34.80;25.30;;;38.17;19.26;102138.94;5051725;28;20686;-62
2022/08/11 13:44:37;;;;;;;2.40;2.20;;;34.90;25.40;;;38.10;19.06;102133.94;5063677;28;20189;-61
2022/08/11 13:47:13;;;;;;;2.63;2.42;;;34.90;25.20;;;37.98;19.40;102131.03;5054890;28;20186;-66
2022/08/11 13:49:46;;;;;;;2.42;2.25;;;34.90;25.20;;;37.82;19.10;102132.66;5054562;28;20214;-65
2022/08/11 13:52:19;;;;;;;2.40;2.03;;;35.00;25.00;;;37.62;19.01;102133.28;5057860;28;20539;-61
2022/08/11 13:54:52;;;;;;;2.25;2.05;;;35.00;24.70;;;37.47;19.79;102125.50;5053161;28;20240;-63
2022/08/11 13:57:21;;;;;;;4.28;2.80;;;34.90;24.90;;;37.42;19.63;102128.44;5054024;28;20208;-63
2022/08/11 14:00:09;;;;;;;4.82;4.43;;;34.90;25.00;;;37.56;19.79;102118.88;5053554;28;20190;-63
2022/08/11 14:02:52;;;;;;;2.20;2.10;;;35.00;25.10;;;37.70;19.87;102114.06;5053503;28;20232;-63
2022/08/11 14:05:27;;;;;;;2.97;2.40;;;35.00;24.90;;;37.73;19.82;102112.56;5061442;28;20227;-62
2022/08/11 14:08:01;;;;;;;5.93;2.88;;;35.10;24.70;;;37.79;19.60;102105.78;5049678;28;20223;-63
2022/08/11 14:10:33;;;;;;;3.42;2.20;;;35.10;25.10;;;37.83;19.13;102112.28;5055295;28;20548;-64
2022/08/11 14:16:03;;;;;;;4.22;3.83;;;35.10;24.70;;;37.65;19.29;102105.16;5054148;28;20205;-63
2022/08/11 14:18:38;;;;;;;2.42;2.15;;;35.10;24.80;;;37.59;20.11;102099.00;5053708;28;20190;-63
2022/08/11 14:24:07;;;;;;;2.63;2.35;;;35.10;24.80;;;37.44;19.80;102094.00;5066250;28;20554;-63
2022/08/11 14:26:37;;;;;;;2.00;1.90;;;35.00;24.90;;;37.41;19.15;102094.63;5053249;28;20220;-64
2022/08/11 14:29:09;;;;;;;2.40;2.20;;;34.90;24.80;;;37.35;19.36;102095.09;5050605;28;20213;-63
2022/08/11 14:31:44;;;;;;;2.60;2.38;;;34.90;24.70;;;37.28;19.87;102090.84;5051201;28;20226;-63
2022/08/11 14:34:13;;;;;;;2.22;1.83;;;34.80;24.80;;;37.25;19.70;102086.00;5046404;28;20197;-63
2022/08/11 14:36:44;;;;;;;2.28;2.08;;;34.70;24.70;;;37.14;20.07;102090.19;5052562;28;20221;-62
2022/08/11 14:39:17;;;;;;;2.00;1.90;;;34.70;24.60;;;37.09;19.98;102079.34;5060288;28;20186;-62
2022/08/11 14:47:36;;;;;;;5.15;3.72;;;34.70;24.90;;;37.44;19.26;102088.50;5051270;28;20680;-62
2022/08/11 14:50:12;;;;;;;2.38;2.22;;;34.70;25.00;;;37.36;19.58;102086.50;5074289;28;20206;-63
2022/08/11 14:52:49;;;;;;;2.95;2.60;;;34.60;25.00;;;37.19;19.81;102076.31;5050676;28;20671;-62
2022/08/11 14:58:10;;;;;;;3.97;3.38;;;34.60;25.40;;;37.04;20.77;102074.00;5052326;28;20194;-63
2022/08/11 15:00:41;;;;;;;5.78;5.38;;;34.60;25.50;;;37.01;20.34;102076.59;5052037;28;20198;-62
2022/08/11 15:03:12;;;;;;;2.92;2.72;;;34.50;25.70;;;36.97;20.02;102079.16;5052592;28;20218;-62
2022/08/11 15:05:46;;;;;;;3.10;2.58;;;34.40;25.60;;;36.92;19.93;102071.06;5054944;28;20218;-62
2022/08/11 15:14:11;;;;;;;2.78;2.20;;;34.40;25.50;;;36.75;20.20;102068.25;5050961;28;20554;-62
2022/08/11 15:19:33;;;;;;;2.55;2.08;;;34.40;25.60;;;36.70;20.61;102068.41;5051212;28;20192;-63
2022/08/11 15:24:58;;;;;;;4.50;2.13;;;34.30;25.80;;;36.66;20.41;102061.91;5044310;28;20202;-64
2022/08/11 15:38:54;;;;;;;3.38;3.15;;;34.10;25.80;;;36.41;20.74;102037.91;5052257;28;20197;-62
2022/08/11 15:47:41;;;;;;;3.45;2.30;;;34.00;26.30;;;36.39;20.52;102034.66;5042015;28;20247;-63
2022/08/11 15:50:15;;;;;;;2.47;2.22;;;34.00;26.20;;;36.40;21.11;102030.78;5044511;28;20247;-62
2022/08/11 15:52:52;;;;;;;4.45;2.33;;;34.00;26.30;;;36.41;20.82;102027.72;5044618;28;20260;-63
2022/08/11 15:55:24;;;;;;;4.05;2.97;;;34.00;26.00;;;36.42;20.89;102028.53;5058566;28;20189;-61
2022/08/11 16:06:43;;;;;;;2.55;2.40;;;33.90;26.10;;;36.32;20.43;102018.66;5072131;28;20204;-62
2022/08/11 16:09:22;;;;;;;2.72;2.58;;;33.80;26.00;;;36.34;20.71;102015.59;5056072;28;20674;-63
2022/08/11 16:11:53;;;;;;;2.85;2.38;;;33.90;26.20;;;36.36;21.44;102018.81;5051684;28;20209;-63
2022/08/11 16:17:16;;;;;;;3.00;2.78;;;33.80;26.30;;;36.22;21.45;102018.13;5052356;28;20709;-63
2022/08/11 16:19:48;;;;;;;4.22;2.63;;;33.80;26.20;;;36.15;20.96;102012.28;5051948;28;20190;-61
2022/08/11 16:22:46;;;;;;;2.30;2.10;;;33.80;25.70;;;36.15;20.93;102017.75;5055425;28;20730;-63
2022/08/11 16:25:33;;;;;;;4.38;2.55;;;33.80;25.90;;;36.47;20.72;102001.78;5055953;28;20678;-63
2022/08/11 16:28:23;;;;;;;6.00;2.70;;;33.90;26.30;;;36.93;20.75;102001.28;5053112;28;20673;-63
2022/08/11 16:30:54;;;;;;;2.38;2.28;;;34.00;26.40;;;37.30;20.56;102011.63;5055749;28;20264;-64
2022/08/11 16:33:24;;;;;;;2.50;2.30;;;34.10;26.40;;;37.52;20.44;102001.63;5055794;28;20212;-64
2022/08/11 16:39:05;;;;;;;2.65;2.10;;;34.40;26.00;;;37.36;19.64;101997.72;5049781;28;20182;-62
2022/08/11 16:47:15;;;;;;;4.55;2.60;;;34.40;25.70;;;36.97;20.33;101991.25;5051941;28;20217;-63
2022/08/11 16:49:48;;;;;;;3.05;2.40;;;34.40;25.40;;;36.85;19.69;101991.03;5054366;28;20294;-67
2022/08/11 16:52:21;;;;;;;2.80;2.60;;;34.40;25.60;;;36.78;20.74;101990.72;5054806;28;20213;-63
2022/08/11 16:54:49;;;;;;;5.43;3.00;;;34.30;25.90;;;36.77;20.67;101989.13;5056026;28;20182;-63
2022/08/11 17:00:14;;;;;;;2.88;2.63;;;34.20;25.70;;;36.61;20.33;101982.47;5055943;28;20249;-63
2022/08/11 17:14:23;;;;;;;3.00;2.10;;;34.20;26.10;;;36.79;20.81;101984.09;5056565;28;20194;-62
2022/08/11 17:17:05;;;;;;;3.38;2.40;;;34.20;26.20;;;36.92;20.62;101980.44;5056718;28;20205;-62
2022/08/11 17:19:40;;;;;;;2.92;2.63;;;34.20;26.40;;;37.00;20.76;101978.81;5050255;28;20210;-63
2022/08/11 17:25:19;;;;;;;3.15;2.20;;;34.30;26.70;;;37.05;20.62;101982.22;5076089;28;20185;-63
2022/08/11 17:27:47;;;;;;;2.35;2.10;;;34.40;26.80;;;37.04;21.23;101975.09;5075729;28;20189;-62
2022/08/11 17:30:15;;;;;;;2.20;2.00;;;34.40;26.90;;;37.01;21.11;101978.50;5075172;28;20232;-63
2022/08/11 17:35:39;;;;;;;2.30;2.10;;;34.40;27.10;;;36.85;21.70;101971.81;5075319;28;20258;-62
2022/08/11 17:38:13;;;;;;;2.38;2.17;;;34.40;27.30;;;36.72;21.37;101967.28;5075183;28;20232;-62
2022/08/11 17:49:10;;;;;;;3.63;3.17;;;33.80;28.00;;;35.90;22.63;101965.16;5075668;28;20213;-62
2022/08/11 18:00:15;;;;;;;2.30;2.10;;;33.10;28.40;;;35.25;23.47;101966.81;5075230;28;20185;-62
2022/08/11 18:05:36;;;;;;;3.23;1.83;;;32.90;29.00;;;35.03;23.57;101975.81;5065980;28;20197;-62
